Time;durP1;ratioP1;P1;durP2;ratioP2;P2;SDS_P1;SDS_P2;PMS_P1;PMS_P2;Temp;Humidity;BMP_temperature;BMP_pressure;BME280_temperature;BME280_humidity;BME280_pressure;Samples;Min_cycle;Max_cycle;Signal;HPM_P1;HPM_P2
2023/06/11 00:01:08;;;;;;;4.82;3.83;;;28.00;41.00;;;;;;5105722;27;45419;-67
2023/06/11 00:03:35;;;;;;;8.18;3.65;;;28.00;41.00;;;;;;5105852;27;45306;-67
2023/06/11 00:06:02;;;;;;;5.72;3.60;;;28.00;41.00;;;;;;5105936;27;45317;-66
2023/06/11 00:08:29;;;;;;;6.65;3.72;;;28.00;41.00;;;;;;5104089;27;45462;-69
2023/06/11 00:10:56;;;;;;;6.90;3.67;;;27.90;40.90;;;;;;5105704;27;46695;-66
2023/06/11 00:13:22;;;;;;;6.13;3.47;;;27.90;41.00;;;;;;5105711;27;45327;-68
2023/06/11 00:15:50;;;;;;;4.15;3.20;;;27.90;41.50;;;;;;5104790;27;45317;-68
2023/06/11 00:18:18;;;;;;;5.28;3.35;;;27.80;40.90;;;;;;5105731;27;45136;-68
2023/06/11 00:20:46;;;;;;;4.70;3.45;;;27.80;41.00;;;;;;5103664;27;46164;-68
2023/06/11 00:23:12;;;;;;;6.32;3.67;;;27.80;41.00;;;;;;5105642;27;45409;-69
2023/06/11 00:25:39;;;;;;;4.38;3.45;;;27.80;41.00;;;;;;5103525;27;45247;-68
2023/06/11 00:28:07;;;;;;;5.43;3.80;;;27.70;40.90;;;;;;5104204;27;45559;-68
2023/06/11 00:30:34;;;;;;;4.32;3.92;;;27.70;41.60;;;;;;5104382;27;46608;-68
2023/06/11 00:33:00;;;;;;;4.40;3.60;;;27.70;41.00;;;;;;5105477;27;45364;-67
2023/06/11 00:35:29;;;;;;;4.60;3.33;;;27.60;40.90;;;;;;5105627;27;45378;-67
2023/06/11 00:37:57;;;;;;;3.58;3.25;;;27.70;41.10;;;;;;5105695;27;45271;-67
2023/06/11 00:40:24;;;;;;;3.97;3.25;;;27.60;41.00;;;;;;5104296;27;46649;-67
2023/06/11 00:42:51;;;;;;;3.63;3.33;;;27.60;41.00;;;;;;5105230;27;45424;-67
2023/06/11 00:45:19;;;;;;;4.82;3.60;;;27.60;41.10;;;;;;5105306;27;45291;-71
2023/06/11 00:47:46;;;;;;;3.85;3.55;;;27.60;41.20;;;;;;5104770;27;45476;-69
2023/06/11 00:50:12;;;;;;;3.75;3.45;;;27.50;41.20;;;;;;5105111;27;47385;-72
2023/06/11 00:52:41;;;;;;;3.92;3.58;;;27.50;41.20;;;;;;5103657;27;45390;-70
2023/06/11 00:55:08;;;;;;;4.80;3.45;;;27.50;41.20;;;;;;5105210;27;45225;-69
2023/06/11 00:57:40;;;;;;;4.05;3.65;;;27.50;41.30;;;;;;5105040;27;45250;-70
2023/06/11 01:00:12;;;;;;;5.55;3.72;;;27.50;41.30;;;;;;5084673;27;46398;-69
2023/06/11 01:02:44;;;;;;;4.20;3.80;;;27.50;41.40;;;;;;5084396;27;45384;-69
2023/06/11 01:05:17;;;;;;;4.20;3.38;;;27.40;41.30;;;;;;5084735;27;45386;-69
2023/06/11 01:07:50;;;;;;;5.13;3.80;;;27.40;41.40;;;;;;5084733;28;45334;-69
2023/06/11 01:10:17;;;;;;;6.72;4.30;;;27.40;41.40;;;;;;5086580;27;46510;-68
2023/06/11 01:12:44;;;;;;;6.95;4.10;;;27.40;41.40;;;;;;5087918;27;45281;-67
2023/06/11 01:15:14;;;;;;;5.07;4.20;;;27.30;41.40;;;;;;5088417;27;45319;-69
2023/06/11 01:17:42;;;;;;;4.75;4.15;;;27.30;41.40;;;;;;5098003;27;45453;-70
2023/06/11 01:20:13;;;;;;;6.68;4.18;;;27.30;41.50;;;;;;5108062;27;46421;-69
2023/06/11 01:22:54;;;;;;;4.32;3.92;;;27.30;41.50;;;;;;5108324;27;45292;-69
2023/06/11 01:25:25;;;;;;;4.75;4.30;;;27.20;41.40;;;;;;5108580;27;45328;-69
2023/06/11 01:28:02;;;;;;;3.95;3.63;;;27.30;41.50;;;;;;5095980;27;45591;-69
2023/06/11 01:30:30;;;;;;;5.55;3.83;;;27.20;41.50;;;;;;5087726;27;45248;-69
2023/06/11 01:32:57;;;;;;;5.97;3.90;;;27.20;41.50;;;;;;5087681;27;45309;-69
2023/06/11 01:35:24;;;;;;;3.80;3.50;;;27.20;41.50;;;;;;5087830;27;45439;-68
2023/06/11 01:37:55;;;;;;;4.40;4.00;;;27.20;41.60;;;;;;5087812;27;45312;-69
2023/06/11 01:40:22;;;;;;;4.53;4.13;;;27.20;41.60;;;;;;5087535;27;45324;-69
2023/06/11 01:42:49;;;;;;;5.00;4.53;;;27.10;41.50;;;;;;5087430;27;45319;-69
2023/06/11 01:45:18;;;;;;;5.30;4.80;;;27.10;41.60;;;;;;5087668;27;45385;-69
2023/06/11 01:47:45;;;;;;;6.28;4.22;;;27.10;41.60;;;;;;5092929;27;45488;-70
2023/06/11 01:50:12;;;;;;;5.05;4.53;;;27.10;41.60;;;;;;5107699;27;46615;-70
2023/06/11 01:52:39;;;;;;;5.38;4.30;;;27.10;41.70;;;;;;5108007;27;45531;-69
2023/06/11 01:55:07;;;;;;;4.65;4.10;;;27.00;41.70;;;;;;5108098;27;45352;-70
2023/06/11 01:57:34;;;;;;;4.97;3.97;;;27.00;41.70;;;;;;5108090;27;45323;-68
2023/06/11 02:00:01;;;;;;;4.47;4.07;;;27.00;41.70;;;;;;5108066;27;45291;-69
2023/06/11 02:02:31;;;;;;;5.03;4.53;;;27.00;41.70;;;;;;5106425;27;45258;-67
2023/06/11 02:04:58;;;;;;;4.78;4.28;;;27.00;41.70;;;;;;5107821;27;45499;-68
2023/06/11 02:07:25;;;;;;;5.50;4.80;;;26.90;41.60;;;;;;5107828;27;45481;-67
2023/06/11 02:09:52;;;;;;;6.60;4.97;;;26.90;41.70;;;;;;5107405;27;45958;-68
2023/06/11 02:12:18;;;;;;;5.72;5.13;;;26.90;41.70;;;;;;5107600;27;45330;-67
2023/06/11 02:14:45;;;;;;;5.80;5.20;;;26.80;41.70;;;;;;5107687;27;45362;-68
2023/06/11 02:17:12;;;;;;;6.07;5.32;;;26.90;41.80;;;;;;5107626;27;45319;-67
2023/06/11 02:19:40;;;;;;;4.90;4.40;;;26.80;41.70;;;;;;5107216;27;46352;-67
2023/06/11 02:22:07;;;;;;;5.75;5.15;;;26.80;41.70;;;;;;5107322;27;45272;-67
2023/06/11 02:24:34;;;;;;;6.35;5.10;;;26.80;41.70;;;;;;5107452;27;45255;-68
2023/06/11 02:27:01;;;;;;;5.60;4.97;;;26.80;41.70;;;;;;5107532;27;45299;-69
2023/06/11 02:29:28;;;;;;;6.00;4.78;;;26.80;41.70;;;;;;5107166;27;47460;-68
2023/06/11 02:31:54;;;;;;;5.47;4.97;;;26.70;41.70;;;;;;5107246;27;45386;-67
2023/06/11 02:34:21;;;;;;;5.32;4.82;;;26.70;41.80;;;;;;5107416;27;45184;-67
2023/06/11 02:36:50;;;;;;;4.85;4.38;;;26.70;41.70;;;;;;5107472;27;45248;-69
2023/06/11 02:39:17;;;;;;;5.20;4.70;;;26.70;41.80;;;;;;5106990;27;46731;-67
2023/06/11 02:41:44;;;;;;;5.70;4.75;;;26.70;41.80;;;;;;5107181;27;45373;-73
2023/06/11 02:44:11;;;;;;;5.30;4.80;;;26.60;41.80;;;;;;5107216;27;45138;-68
2023/06/11 02:46:37;;;;;;;6.72;4.75;;;26.60;41.80;;;;;;5107246;27;45326;-67
2023/06/11 02:49:04;;;;;;;5.10;4.60;;;26.60;41.80;;;;;;5106875;27;46650;-67
2023/06/11 02:51:31;;;;;;;5.40;4.88;;;26.60;41.80;;;;;;5106921;27;45357;-67
2023/06/11 02:53:59;;;;;;;5.30;4.63;;;26.60;42.00;;;;;;5106944;27;45324;-67
2023/06/11 02:56:27;;;;;;;5.18;4.68;;;26.60;41.90;;;;;;5107196;27;45392;-67
2023/06/11 02:58:54;;;;;;;4.50;4.10;;;26.60;41.90;;;;;;5106550;27;45478;-68
2023/06/11 03:01:21;;;;;;;5.50;5.00;;;26.50;41.90;;;;;;5106479;27;45423;-67
2023/06/11 03:03:47;;;;;;;5.70;4.95;;;26.50;41.80;;;;;;5106879;27;45350;-68
2023/06/11 03:06:14;;;;;;;5.47;4.97;;;26.50;41.90;;;;;;5106918;27;45461;-67
2023/06/11 03:08:41;;;;;;;5.07;4.60;;;26.50;41.90;;;;;;5106515;27;45531;-68
2023/06/11 03:11:10;;;;;;;5.57;4.85;;;26.50;42.00;;;;;;5106653;27;45133;-68
2023/06/11 03:13:36;;;;;;;4.68;4.28;;;26.50;42.00;;;;;;5106679;27;45406;-68
2023/06/11 03:16:04;;;;;;;5.32;4.82;;;26.50;42.00;;;;;;5106874;27;45491;-68
2023/06/11 03:18:30;;;;;;;4.55;4.15;;;26.50;42.60;;;;;;5089339;27;45465;-68
2023/06/11 03:20:58;;;;;;;5.93;4.88;;;26.40;42.00;;;;;;5085963;27;45268;-68
2023/06/11 03:23:24;;;;;;;5.43;4.57;;;26.40;42.00;;;;;;5086036;27;45276;-67
2023/06/11 03:25:51;;;;;;;4.43;4.03;;;26.40;42.00;;;;;;5086152;27;45332;-68
2023/06/11 03:28:19;;;;;;;4.85;4.10;;;26.40;42.00;;;;;;5101720;27;46301;-68
2023/06/11 03:30:46;;;;;;;6.15;4.45;;;26.40;42.10;;;;;;5107375;27;45398;-68
2023/06/11 03:33:13;;;;;;;4.93;4.43;;;26.30;42.10;;;;;;5106441;27;45321;-67
2023/06/11 03:35:40;;;;;;;4.15;3.85;;;26.40;42.10;;;;;;5107350;27;45367;-68
2023/06/11 03:38:07;;;;;;;4.30;3.90;;;26.30;42.10;;;;;;5107174;27;46767;-68
2023/06/11 03:40:34;;;;;;;4.40;4.00;;;26.30;42.10;;;;;;5107087;27;45659;-68
2023/06/11 03:43:01;;;;;;;4.47;3.92;;;26.30;42.20;;;;;;5107366;27;45306;-68
2023/06/11 03:45:29;;;;;;;4.32;3.92;;;26.30;42.20;;;;;;5107100;27;45307;-67
2023/06/11 03:47:57;;;;;;;4.63;4.22;;;26.30;42.20;;;;;;5106877;27;45429;-67
2023/06/11 03:50:24;;;;;;;4.70;4.30;;;26.30;42.20;;;;;;5106664;27;45422;-68
2023/06/11 03:52:51;;;;;;;4.38;3.97;;;26.30;42.20;;;;;;5107259;27;45309;-67
2023/06/11 03:55:19;;;;;;;4.35;3.90;;;26.20;42.20;;;;;;5107469;27;45280;-69
2023/06/11 03:57:46;;;;;;;5.25;4.20;;;26.20;42.20;;;;;;5106999;27;46793;-68
2023/06/11 04:00:14;;;;;;;4.43;4.00;;;26.20;42.20;;;;;;5106744;27;45469;-68
2023/06/11 04:02:42;;;;;;;4.22;3.83;;;26.20;42.20;;;;;;5106766;27;45328;-68
2023/06/11 04:05:09;;;;;;;5.18;4.13;;;26.20;42.30;;;;;;5107213;27;44813;-68
2023/06/11 04:07:39;;;;;;;4.82;3.78;;;26.20;42.30;;;;;;5106822;27;47603;-69
2023/06/11 04:10:07;;;;;;;4.22;3.83;;;26.20;42.20;;;;;;5106432;27;45314;-67
2023/06/11 04:12:33;;;;;;;4.65;3.83;;;26.20;42.30;;;;;;5106520;27;45255;-68
2023/06/11 04:15:01;;;;;;;4.63;4.13;;;26.10;42.30;;;;;;5106940;27;45502;-68
2023/06/11 04:17:27;;;;;;;4.15;3.70;;;26.10;42.30;;;;;;5098645;27;45469;-69
2023/06/11 04:19:56;;;;;;;4.05;3.65;;;26.10;42.40;;;;;;5085766;27;45434;-68
2023/06/11 04:22:23;;;;;;;4.00;3.70;;;26.10;42.40;;;;;;5086214;27;45295;-69
2023/06/11 04:24:49;;;;;;;4.20;3.83;;;26.10;42.40;;;;;;5086259;27;45339;-68
2023/06/11 04:27:17;;;;;;;3.92;3.53;;;26.10;42.40;;;;;;5090217;27;45424;-68
2023/06/11 04:29:45;;;;;;;4.05;3.70;;;26.10;42.50;;;;;;5106411;27;45416;-68
2023/06/11 04:32:11;;;;;;;4.40;3.70;;;26.00;42.40;;;;;;5106419;27;45214;-67
2023/06/11 04:34:38;;;;;;;3.80;3.38;;;26.10;42.50;;;;;;5106718;27;45180;-69
2023/06/11 04:37:08;;;;;;;4.28;3.40;;;26.10;42.50;;;;;;5106386;27;46654;-68
2023/06/11 04:39:35;;;;;;;4.28;3.88;;;26.00;42.50;;;;;;5106397;27;45415;-68
2023/06/11 04:42:02;;;;;;;3.88;3.42;;;26.00;42.50;;;;;;5106508;27;45268;-68
2023/06/11 04:44:29;;;;;;;4.05;3.75;;;26.00;42.50;;;;;;5107475;27;45435;-68
2023/06/11 04:46:57;;;;;;;3.90;3.50;;;26.00;42.60;;;;;;5109665;27;46366;-69
2023/06/11 04:49:24;;;;;;;3.38;3.08;;;26.00;42.60;;;;;;5109844;27;45934;-68
2023/06/11 04:51:52;;;;;;;3.88;3.58;;;26.00;42.60;;;;;;5109851;27;45398;-68
2023/06/11 04:54:21;;;;;;;3.60;3.30;;;26.00;42.60;;;;;;5110285;27;45247;-69
2023/06/11 04:56:48;;;;;;;3.40;3.17;;;26.00;42.60;;;;;;5109109;27;46647;-68
2023/06/11 04:59:15;;;;;;;3.70;3.40;;;26.00;42.60;;;;;;5109137;27;45369;-68
2023/06/11 05:01:47;;;;;;;3.92;3.63;;;26.00;42.60;;;;;;5109706;27;45315;-68
2023/06/11 05:04:14;;;;;;;3.75;3.45;;;26.00;42.50;;;;;;5109914;27;45448;-68
2023/06/11 05:06:44;;;;;;;3.58;3.28;;;26.00;42.50;;;;;;5109640;27;46521;-68
2023/06/11 05:09:13;;;;;;;3.90;3.50;;;26.00;42.40;;;;;;5109647;27;45419;-68
2023/06/11 05:11:43;;;;;;;3.47;3.17;;;26.00;42.50;;;;;;5108712;27;45312;-68
2023/06/11 05:14:10;;;;;;;3.42;3.13;;;26.00;42.40;;;;;;5109057;27;45446;-68
2023/06/11 05:16:37;;;;;;;3.65;3.35;;;26.00;42.40;;;;;;5109617;27;46406;-68
2023/06/11 05:19:05;;;;;;;3.90;3.60;;;26.00;42.50;;;;;;5109484;27;45346;-68
2023/06/11 05:21:32;;;;;;;3.63;3.33;;;26.00;42.50;;;;;;5109601;27;45290;-69
2023/06/11 05:24:06;;;;;;;3.97;3.67;;;26.00;42.50;;;;;;5106949;27;45323;-68
2023/06/11 05:26:33;;;;;;;3.40;3.10;;;26.00;42.40;;;;;;5107881;27;46671;-69
2023/06/11 05:29:01;;;;;;;4.05;3.45;;;26.00;42.50;;;;;;5087907;27;45322;-68
2023/06/11 05:31:30;;;;;;;3.60;3.30;;;26.00;42.50;;;;;;5088085;27;45248;-69
2023/06/11 05:33:57;;;;;;;3.78;3.47;;;26.00;42.50;;;;;;5087946;27;45295;-68
2023/06/11 05:36:25;;;;;;;3.53;3.22;;;26.00;42.50;;;;;;5087703;27;46410;-69
2023/06/11 05:38:52;;;;;;;3.67;3.38;;;26.00;42.50;;;;;;5087612;27;45375;-68
2023/06/11 05:41:19;;;;;;;3.90;3.60;;;26.00;42.60;;;;;;5087933;27;45302;-68
2023/06/11 05:43:46;;;;;;;3.60;3.30;;;26.00;42.50;;;;;;5088021;27;45476;-68
2023/06/11 05:46:15;;;;;;;4.55;3.45;;;25.90;42.50;;;;;;5087447;27;46850;-68
2023/06/11 05:48:42;;;;;;;3.92;3.53;;;25.90;42.50;;;;;;5087377;27;45344;-69
2023/06/11 05:51:09;;;;;;;3.58;3.28;;;25.90;42.50;;;;;;5087707;27;45413;-70
2023/06/11 05:53:35;;;;;;;3.67;3.38;;;25.90;42.50;;;;;;5087963;27;45307;-68
2023/06/11 05:56:04;;;;;;;3.80;3.40;;;25.90;42.50;;;;;;5086933;27;45326;-68
2023/06/11 05:58:32;;;;;;;3.63;3.25;;;25.90;42.50;;;;;;5087370;27;45277;-68
2023/06/11 06:01:01;;;;;;;3.63;3.33;;;25.90;42.60;;;;;;5087682;27;45307;-67
2023/06/11 06:03:29;;;;;;;3.78;3.05;;;26.00;42.60;;;;;;5087532;27;45284;-68
2023/06/11 06:05:58;;;;;;;3.80;3.50;;;25.90;42.50;;;;;;5087316;27;46743;-68
2023/06/11 06:08:27;;;;;;;3.95;3.65;;;26.00;42.60;;;;;;5087198;27;45378;-69
2023/06/11 06:10:54;;;;;;;4.18;3.65;;;26.00;42.60;;;;;;5087516;27;45238;-70
2023/06/11 06:13:21;;;;;;;4.68;3.30;;;26.00;42.50;;;;;;5087626;27;45263;-70
2023/06/11 06:15:48;;;;;;;3.58;3.28;;;26.00;42.50;;;;;;5087156;27;45411;-69
2023/06/11 06:18:16;;;;;;;3.50;3.20;;;26.00;42.50;;;;;;5101659;27;45388;-69
2023/06/11 06:20:44;;;;;;;3.83;3.53;;;26.00;42.50;;;;;;5107753;27;45256;-69
2023/06/11 06:23:11;;;;;;;3.40;3.05;;;26.00;42.50;;;;;;5108006;27;45439;-69
2023/06/11 06:25:38;;;;;;;3.83;3.53;;;26.00;42.50;;;;;;5107382;27;46495;-69
2023/06/11 06:28:05;;;;;;;3.70;3.40;;;26.00;42.50;;;;;;5093194;27;45420;-69
2023/06/11 06:30:32;;;;;;;3.83;3.53;;;26.00;42.50;;;;;;5087216;27;45352;-69
2023/06/11 06:32:59;;;;;;;3.92;3.47;;;26.00;42.40;;;;;;5087141;27;45126;-69
2023/06/11 06:35:26;;;;;;;3.70;3.40;;;26.00;42.40;;;;;;5086748;27;45324;-69
2023/06/11 06:37:54;;;;;;;3.85;3.45;;;26.00;42.40;;;;;;5086626;27;45367;-69
2023/06/11 06:40:21;;;;;;;3.65;3.35;;;26.10;42.40;;;;;;5086804;27;45469;-68
2023/06/11 06:42:48;;;;;;;3.47;3.13;;;26.00;42.40;;;;;;5086941;27;45303;-67
2023/06/11 06:45:15;;;;;;;3.63;3.38;;;26.10;42.50;;;;;;5086572;27;47436;-68
2023/06/11 06:47:45;;;;;;;3.55;3.25;;;26.00;42.50;;;;;;5086432;27;45356;-70
2023/06/11 06:50:11;;;;;;;3.60;3.30;;;26.10;42.60;;;;;;5086619;27;45256;-70
2023/06/11 06:52:38;;;;;;;3.70;3.28;;;26.10;42.70;;;;;;5086924;27;45255;-69
2023/06/11 06:55:07;;;;;;;3.30;3.03;;;26.10;42.70;;;;;;5086505;27;45252;-70
2023/06/11 06:57:34;;;;;;;3.55;3.25;;;26.10;42.60;;;;;;5086408;27;45363;-68
2023/06/11 07:00:00;;;;;;;3.25;3.05;;;26.10;42.70;;;;;;5086680;27;45363;-69
2023/06/11 07:02:27;;;;;;;4.05;3.65;;;26.10;42.70;;;;;;5086529;27;45307;-68
2023/06/11 07:04:54;;;;;;;3.72;3.42;;;26.10;42.80;;;;;;5086154;27;45380;-68
2023/06/11 07:07:24;;;;;;;4.15;3.60;;;26.10;42.80;;;;;;5085544;27;45268;-68
2023/06/11 07:09:51;;;;;;;3.40;3.20;;;26.10;42.80;;;;;;5086663;27;45303;-68
2023/06/11 07:12:20;;;;;;;3.60;3.30;;;26.10;42.80;;;;;;5086530;27;45466;-68
2023/06/11 07:14:47;;;;;;;3.40;3.10;;;26.10;43.00;;;;;;5086282;27;45635;-68
2023/06/11 07:17:14;;;;;;;3.80;3.42;;;26.20;43.00;;;;;;5092115;27;45374;-68
2023/06/11 07:19:41;;;;;;;3.35;3.08;;;26.10;43.00;;;;;;5106997;27;45357;-68
2023/06/11 07:22:07;;;;;;;3.33;3.00;;;26.20;43.10;;;;;;5107036;27;45400;-68
2023/06/11 07:24:35;;;;;;;4.57;3.15;;;26.20;43.00;;;;;;5106412;27;46408;-68
2023/06/11 07:27:02;;;;;;;3.10;2.90;;;26.20;43.00;;;;;;5101383;27;45264;-69
2023/06/11 07:29:30;;;;;;;3.50;3.20;;;26.20;42.90;;;;;;5086169;27;45323;-68
2023/06/11 07:31:57;;;;;;;3.55;3.10;;;26.20;42.90;;;;;;5086250;27;45303;-68
2023/06/11 07:34:25;;;;;;;3.33;3.03;;;26.30;42.80;;;;;;5085932;27;46368;-68
2023/06/11 07:36:52;;;;;;;3.72;3.38;;;26.30;42.90;;;;;;5085996;27;45379;-69
2023/06/11 07:39:19;;;;;;;3.53;3.25;;;26.30;42.80;;;;;;5085727;27;45358;-68
2023/06/11 07:41:46;;;;;;;3.53;3.22;;;26.30;42.70;;;;;;5086157;27;45492;-67
2023/06/11 07:44:12;;;;;;;3.22;3.00;;;26.40;42.70;;;;;;5085646;27;46401;-68
2023/06/11 07:46:41;;;;;;;3.40;3.10;;;26.40;42.60;;;;;;5086069;27;45346;-68
2023/06/11 07:49:08;;;;;;;3.47;3.17;;;26.40;42.60;;;;;;5085852;27;45248;-68
2023/06/11 07:51:35;;;;;;;3.22;3.03;;;26.50;42.50;;;;;;5085878;27;45382;-68
2023/06/11 07:54:04;;;;;;;3.30;3.08;;;26.50;42.40;;;;;;5085691;27;45518;-68
2023/06/11 07:56:31;;;;;;;3.17;2.90;;;26.50;42.40;;;;;;5085734;27;45501;-68
2023/06/11 07:58:58;;;;;;;2.95;2.75;;;26.50;42.30;;;;;;5085631;27;45330;-68
2023/06/11 08:01:24;;;;;;;2.80;2.60;;;26.50;42.20;;;;;;5085420;27;45320;-69
2023/06/11 08:03:53;;;;;;;3.47;3.17;;;26.50;42.20;;;;;;5085540;27;46266;-68
2023/06/11 08:06:20;;;;;;;3.35;3.05;;;26.60;42.40;;;;;;5085445;27;45268;-68
2023/06/11 08:08:47;;;;;;;3.33;3.03;;;26.60;42.30;;;;;;5085424;27;45474;-69
2023/06/11 08:11:14;;;;;;;2.90;2.70;;;26.60;42.20;;;;;;5085643;27;45585;-69
2023/06/11 08:13:41;;;;;;;2.92;2.72;;;26.60;42.30;;;;;;5085284;27;46628;-69
2023/06/11 08:16:08;;;;;;;3.22;2.92;;;26.70;42.20;;;;;;5085421;27;45371;-69
2023/06/11 08:18:35;;;;;;;3.25;2.95;;;26.70;42.30;;;;;;5103648;27;45327;-69
2023/06/11 08:21:05;;;;;;;3.03;2.78;;;26.70;42.20;;;;;;5109892;27;45183;-69
2023/06/11 08:23:34;;;;;;;3.42;3.13;;;26.80;42.20;;;;;;5109358;27;45324;-68
2023/06/11 08:26:01;;;;;;;3.60;3.28;;;26.80;42.10;;;;;;5109365;27;45403;-69
2023/06/11 08:28:28;;;;;;;3.10;2.80;;;26.80;42.10;;;;;;5091856;27;45406;-70
2023/06/11 08:30:55;;;;;;;3.30;3.10;;;26.80;42.10;;;;;;5089354;27;45418;-69
2023/06/11 08:33:23;;;;;;;3.50;3.20;;;26.90;42.20;;;;;;5088848;27;46769;-69
2023/06/11 08:35:50;;;;;;;3.40;3.10;;;26.90;42.20;;;;;;5088945;27;45440;-69
2023/06/11 08:38:18;;;;;;;3.55;3.25;;;26.90;42.20;;;;;;5088636;27;45295;-68
2023/06/11 08:40:46;;;;;;;3.08;2.88;;;27.00;42.20;;;;;;5088972;27;45399;-68
2023/06/11 08:43:13;;;;;;;3.58;3.28;;;27.00;42.20;;;;;;5088566;27;46324;-70
2023/06/11 08:45:40;;;;;;;3.38;3.13;;;27.00;42.80;;;;;;5088644;27;45360;-68
2023/06/11 08:48:07;;;;;;;3.38;3.08;;;27.00;42.30;;;;;;5088529;27;45300;-68
2023/06/11 08:50:34;;;;;;;3.55;3.25;;;27.10;42.40;;;;;;5088852;27;45246;-68
2023/06/11 08:53:04;;;;;;;3.00;2.80;;;27.10;42.20;;;;;;5088186;27;46754;-68
2023/06/11 08:55:32;;;;;;;3.42;3.05;;;27.10;42.20;;;;;;5088474;27;45350;-68
2023/06/11 08:58:00;;;;;;;3.13;2.92;;;27.10;42.30;;;;;;5088334;27;45300;-68
2023/06/11 09:00:27;;;;;;;2.90;2.70;;;27.20;42.10;;;;;;5088664;27;45415;-68
2023/06/11 09:02:53;;;;;;;2.97;2.78;;;27.20;42.10;;;;;;5087790;27;45705;-68
2023/06/11 09:05:21;;;;;;;3.20;2.90;;;27.20;42.00;;;;;;5088300;27;45334;-69
2023/06/11 09:07:51;;;;;;;4.53;3.28;;;27.30;42.30;;;;;;5088382;27;45268;-68
2023/06/11 09:10:18;;;;;;;3.28;3.08;;;27.30;42.20;;;;;;5088426;27;45342;-69
2023/06/11 09:12:46;;;;;;;3.50;3.22;;;27.30;42.30;;;;;;5088429;27;46155;-68
2023/06/11 09:15:13;;;;;;;3.45;3.15;;;27.30;42.30;;;;;;5088126;27;45189;-70
2023/06/11 09:17:41;;;;;;;3.17;2.88;;;27.40;42.40;;;;;;5097869;27;45319;-68
2023/06/11 09:20:09;;;;;;;2.95;2.75;;;27.40;42.50;;;;;;5108736;27;45324;-68
2023/06/11 09:22:37;;;;;;;2.85;2.65;;;27.40;42.50;;;;;;5108361;27;45264;-68
2023/06/11 09:25:05;;;;;;;3.40;3.10;;;27.40;42.40;;;;;;5108493;27;45261;-69
2023/06/11 09:27:32;;;;;;;3.22;2.95;;;27.50;42.60;;;;;;5099112;27;45419;-69
2023/06/11 09:30:09;;;;;;;3.10;2.90;;;27.50;42.50;;;;;;5086902;27;45600;-68
2023/06/11 09:32:39;;;;;;;4.88;3.70;;;27.50;42.40;;;;;;5087388;27;46470;-69
2023/06/11 09:35:08;;;;;;;3.53;3.22;;;27.50;43.20;;;;;;5087736;27;45443;-68
2023/06/11 09:37:41;;;;;;;4.10;3.67;;;27.60;43.60;;;;;;5087715;27;45374;-68
2023/06/11 09:40:10;;;;;;;4.53;3.70;;;27.60;43.50;;;;;;5087971;27;45455;-68
2023/06/11 09:42:37;;;;;;;3.55;3.33;;;27.70;43.40;;;;;;5087389;27;46403;-69
2023/06/11 09:45:07;;;;;;;3.58;3.28;;;27.70;43.20;;;;;;5087487;27;45256;-69
2023/06/11 09:47:36;;;;;;;4.10;3.72;;;27.70;43.20;;;;;;5087618;27;45370;-68
2023/06/11 09:50:03;;;;;;;3.70;3.40;;;27.80;43.20;;;;;;5087578;27;45265;-67
2023/06/11 09:52:29;;;;;;;4.10;3.67;;;27.80;43.20;;;;;;5087152;27;45319;-68
2023/06/11 09:54:56;;;;;;;4.20;3.80;;;27.80;43.20;;;;;;5087296;27;45439;-68
2023/06/11 09:57:23;;;;;;;3.80;3.50;;;27.80;43.20;;;;;;5087581;27;45304;-68
2023/06/11 09:59:50;;;;;;;3.60;3.30;;;27.90;43.20;;;;;;5087526;27;45500;-68
2023/06/11 10:02:17;;;;;;;3.60;3.30;;;27.90;43.10;;;;;;5086900;27;45600;-68
2023/06/11 10:04:45;;;;;;;4.05;3.20;;;27.90;43.20;;;;;;5087335;27;45255;-68
2023/06/11 10:07:12;;;;;;;4.15;3.72;;;28.00;43.20;;;;;;5087341;27;45469;-68
2023/06/11 10:09:39;;;;;;;3.40;3.20;;;28.00;43.10;;;;;;5087254;27;45502;-68
2023/06/11 10:12:07;;;;;;;3.72;3.28;;;28.00;43.10;;;;;;5086980;27;46260;-70
2023/06/11 10:14:34;;;;;;;3.78;3.45;;;28.00;43.20;;;;;;5087128;27;45367;-69
2023/06/11 10:17:02;;;;;;;3.35;3.05;;;28.00;43.20;;;;;;5091374;27;45384;-70
2023/06/11 10:19:34;;;;;;;3.33;3.05;;;28.10;43.20;;;;;;5107764;27;45461;-69
2023/06/11 10:22:03;;;;;;;5.18;3.40;;;28.10;43.00;;;;;;5107293;27;46493;-69
2023/06/11 10:24:29;;;;;;;3.63;3.33;;;28.10;43.10;;;;;;5107337;27;45396;-69
2023/06/11 10:27:08;;;;;;;4.38;3.47;;;28.20;43.00;;;;;;5103170;27;45302;-70
2023/06/11 10:29:38;;;;;;;3.80;3.50;;;28.20;42.90;;;;;;5086951;27;45335;-69
2023/06/11 10:32:15;;;;;;;3.55;3.25;;;28.30;43.00;;;;;;5086767;27;45498;-69
2023/06/11 10:34:42;;;;;;;3.00;2.80;;;28.30;43.40;;;;;;5086769;27;45350;-69
2023/06/11 10:37:11;;;;;;;3.40;3.10;;;28.30;42.90;;;;;;5087136;27;45213;-69
2023/06/11 10:39:51;;;;;;;3.58;3.28;;;28.30;43.00;;;;;;5086968;27;45381;-69
2023/06/11 10:42:23;;;;;;;3.20;3.00;;;28.30;42.80;;;;;;5085164;27;45705;-70
2023/06/11 10:44:50;;;;;;;3.60;3.30;;;28.30;42.80;;;;;;5086486;27;45386;-70
2023/06/11 10:47:16;;;;;;;3.20;3.00;;;28.30;42.80;;;;;;5086612;27;45329;-69
2023/06/11 10:49:43;;;;;;;3.65;3.35;;;28.40;42.80;;;;;;5086464;27;45422;-70
2023/06/11 10:52:12;;;;;;;3.47;3.22;;;28.40;42.60;;;;;;5086453;27;45364;-70
2023/06/11 10:54:38;;;;;;;3.35;3.15;;;28.40;42.70;;;;;;5086641;28;45374;-69
2023/06/11 10:57:07;;;;;;;3.28;3.08;;;28.40;42.60;;;;;;5086441;27;45423;-69
2023/06/11 10:59:33;;;;;;;3.30;3.03;;;28.40;42.70;;;;;;5086714;27;45249;-70
2023/06/11 11:02:00;;;;;;;3.53;3.22;;;28.50;42.50;;;;;;5085998;27;46749;-70
2023/06/11 11:04:28;;;;;;;3.40;3.20;;;28.50;42.40;;;;;;5086279;27;45422;-69
2023/06/11 11:07:03;;;;;;;4.07;2.97;;;28.60;42.40;;;;;;5086514;27;45332;-71
2023/06/11 11:09:34;;;;;;;3.10;2.90;;;28.70;42.30;;;;;;5086383;27;45350;-70
2023/06/11 11:12:01;;;;;;;2.90;2.70;;;28.70;42.20;;;;;;5086081;27;45473;-69
2023/06/11 11:14:30;;;;;;;3.05;2.85;;;28.80;42.20;;;;;;5086354;27;45356;-70
2023/06/11 11:17:00;;;;;;;3.45;3.20;;;28.80;42.80;;;;;;5089752;27;44867;-68
2023/06/11 11:19:27;;;;;;;3.90;3.50;;;28.80;42.10;;;;;;5106970;27;45291;-68
2023/06/11 11:21:55;;;;;;;2.70;2.50;;;28.80;42.00;;;;;;5106394;27;45527;-68
2023/06/11 11:24:21;;;;;;;3.38;2.90;;;28.90;42.00;;;;;;5106550;27;45555;-69
2023/06/11 11:26:50;;;;;;;3.95;3.00;;;28.90;41.90;;;;;;5103671;27;45341;-71
2023/06/11 11:29:16;;;;;;;4.28;3.15;;;28.90;43.00;;;;;;5086186;27;45489;-72
2023/06/11 11:31:43;;;;;;;3.95;2.85;;;28.90;43.20;;;;;;5086099;27;46778;-71
2023/06/11 11:34:10;;;;;;;3.30;3.10;;;28.90;43.20;;;;;;5086074;27;45442;-72
2023/06/11 11:36:37;;;;;;;3.17;2.90;;;29.00;43.10;;;;;;5086180;27;45358;-72
2023/06/11 11:39:10;;;;;;;2.80;2.60;;;29.00;43.60;;;;;;5086108;27;45318;-68
2023/06/11 11:41:45;;;;;;;3.90;2.83;;;29.00;43.30;;;;;;5085615;27;46860;-70
2023/06/11 11:44:14;;;;;;;3.35;3.10;;;29.00;41.80;;;;;;5085743;27;45380;-72
2023/06/11 11:46:41;;;;;;;3.75;2.70;;;29.00;39.60;;;;;;5085906;27;45263;-71
2023/06/11 11:49:08;;;;;;;3.92;2.90;;;29.10;42.60;;;;;;5085648;27;45304;-72
2023/06/11 11:51:39;;;;;;;3.22;3.03;;;29.10;42.90;;;;;;5085860;27;46389;-71
2023/06/11 11:54:06;;;;;;;2.80;2.60;;;29.20;41.60;;;;;;5085452;27;45245;-72
2023/06/11 11:56:33;;;;;;;3.70;3.33;;;29.30;42.00;;;;;;5085803;27;45352;-73
2023/06/11 11:59:00;;;;;;;3.17;2.97;;;29.30;41.70;;;;;;5085884;27;45416;-70
2023/06/11 12:01:36;;;;;;;2.90;2.70;;;29.40;39.00;;;;;;5085115;27;46408;-71
2023/06/11 12:04:05;;;;;;;4.22;2.80;;;29.50;39.90;;;;;;5085461;27;45320;-76
2023/06/11 12:06:32;;;;;;;3.40;2.65;;;29.60;38.60;;;;;;5088117;27;45371;-76
2023/06/11 12:08:59;;;;;;;17.25;3.70;;;29.70;38.30;;;;;;5106210;27;45607;-75
2023/06/11 12:11:26;;;;;;;2.83;2.63;;;29.70;38.10;;;;;;5105297;27;46303;-76
2023/06/11 12:13:53;;;;;;;2.67;2.47;;;29.80;36.90;;;;;;5105944;27;45328;-71
2023/06/11 12:16:22;;;;;;;3.05;2.50;;;30.00;37.50;;;;;;5105638;27;45279;-73
2023/06/11 12:18:51;;;;;;;2.88;2.67;;;30.20;37.10;;;;;;5106081;27;45397;-74
2023/06/11 12:21:18;;;;;;;2.60;2.40;;;30.30;36.80;;;;;;5106389;27;46590;-74
2023/06/11 12:23:44;;;;;;;2.00;1.90;;;30.50;36.00;;;;;;5106912;27;45380;-72
2023/06/11 12:26:11;;;;;;;2.47;2.28;;;30.50;35.50;;;;;;5106736;27;45413;-75
2023/06/11 12:28:38;;;;;;;4.72;2.30;;;30.60;35.50;;;;;;5106429;27;45383;-70
2023/06/11 12:31:05;;;;;;;3.28;2.40;;;30.70;35.10;;;;;;5105873;27;45634;-70
2023/06/11 12:33:32;;;;;;;2.80;2.20;;;30.70;35.40;;;;;;5101881;27;45437;-69
2023/06/11 12:36:01;;;;;;;2.33;2.20;;;30.80;34.90;;;;;;5105245;27;45307;-69
2023/06/11 12:38:28;;;;;;;1.88;1.77;;;30.80;34.10;;;;;;5105502;27;45445;-72
2023/06/11 12:40:54;;;;;;;3.00;2.00;;;30.80;34.30;;;;;;5106222;27;45276;-74
2023/06/11 12:43:21;;;;;;;2.08;1.98;;;30.80;33.70;;;;;;5103981;27;45331;-71
2023/06/11 12:45:48;;;;;;;2.85;1.80;;;30.90;34.00;;;;;;5106762;27;45318;-72
2023/06/11 12:48:15;;;;;;;2.13;1.98;;;30.80;33.20;;;;;;5106582;27;45490;-70
2023/06/11 12:50:42;;;;;;;3.67;2.30;;;30.90;34.10;;;;;;5106222;27;48431;-71